Weather at Helsinki East-Redstone Airport

Public forecast

Using degrees Celsius for public forecast. Weather courtesy of forecast.io.

Closest aviation weather report (METAR) to Helsinki East-Redstone Airport

Closest report is Utti Airport, 27.0 nm (50.0 km) NNE. Retrieved 2020/11/24 14:20 UTC (26 minutes ago):

EFUT 241420Z AUTO 29008KT 9999 SCT014 OVC037 01/M01 Q1007

Closest aviation forecast (TAF) to Helsinki East-Redstone Airport

Forecast is more than 12 hours old.

Closest forecast is Utti Airport, 27.0 nm (50.0 km) NNE. Retrieved 2018/06/07 00:42 UTC (2 years ago):

TAF EFUT 072320Z 0800/0812 31008KT CAVOK